createdAt,value
2017-12-12T00:00:51.470Z,7.50
2017-12-12T00:03:19.000Z,7.50
2017-12-12T00:05:46.499Z,7.40
2017-12-12T00:08:14.026Z,7.50
2017-12-12T00:10:41.519Z,7.50
2017-12-12T00:13:08.993Z,7.60
2017-12-12T00:15:36.504Z,7.60
2017-12-12T00:18:03.975Z,7.60
2017-12-12T00:20:31.489Z,7.60
2017-12-12T00:22:58.963Z,7.60
2017-12-12T00:25:26.486Z,7.60
2017-12-12T00:27:54.790Z,7.50
2017-12-12T00:30:22.290Z,7.60
2017-12-12T00:32:50.590Z,7.70
2017-12-12T00:35:18.146Z,7.70
2017-12-12T00:37:45.625Z,7.70
2017-12-12T00:40:13.143Z,7.70
2017-12-12T00:42:40.626Z,7.70
2017-12-12T00:45:08.903Z,7.60
2017-12-12T00:47:37.155Z,7.70
2017-12-12T00:50:04.685Z,7.70
2017-12-12T00:52:32.211Z,7.80
2017-12-12T00:55:00.511Z,7.80
2017-12-12T00:57:28.003Z,7.80
2017-12-12T00:59:55.485Z,7.90
2017-12-12T01:02:22.996Z,8.00
2017-12-12T01:04:50.514Z,8.00
2017-12-12T01:07:17.997Z,8.00
2017-12-12T01:09:46.306Z,7.90
2017-12-12T01:12:13.803Z,7.90
2017-12-12T01:14:41.290Z,7.90
2017-12-12T01:17:08.822Z,7.90
2017-12-12T01:19:36.298Z,7.80
2017-12-12T01:22:03.778Z,7.80
2017-12-12T01:24:31.290Z,7.70
2017-12-12T01:26:58.817Z,7.70
2017-12-12T01:29:26.314Z,7.70
2017-12-12T01:31:53.809Z,7.60
2017-12-12T01:34:21.342Z,7.60
2017-12-12T01:36:48.843Z,7.50
2017-12-12T01:39:16.392Z,7.50
2017-12-12T01:41:43.878Z,7.40
2017-12-12T01:44:11.358Z,7.40
2017-12-12T01:46:39.673Z,7.30
2017-12-12T01:49:07.202Z,7.30
2017-12-12T01:51:34.678Z,7.30
2017-12-12T01:54:02.215Z,7.20
2017-12-12T01:56:29.709Z,7.20
2017-12-12T01:58:57.988Z,7.00
2017-12-12T02:01:26.284Z,7.10
2017-12-12T02:03:53.795Z,7.10
2017-12-12T02:06:21.291Z,7.10
2017-12-12T02:08:49.592Z,7.10
2017-12-12T02:11:17.069Z,7.10
2017-12-12T02:13:44.953Z,7.10
2017-12-12T02:16:12.499Z,7.00
2017-12-12T02:18:40.004Z,7.10
2017-12-12T02:21:07.479Z,7.00
2017-12-12T02:23:34.988Z,7.10
2017-12-12T02:26:02.478Z,7.00
2017-12-12T02:28:30.015Z,7.00
2017-12-12T02:30:57.564Z,7.00
2017-12-12T02:33:25.038Z,7.00
2017-12-12T02:35:52.549Z,7.00
2017-12-12T02:38:20.046Z,7.00
2017-12-12T02:40:47.574Z,6.90
2017-12-12T02:43:15.063Z,6.90
2017-12-12T02:45:42.607Z,6.90
2017-12-12T02:48:10.150Z,6.90
2017-12-12T02:50:37.826Z,6.90
2017-12-12T02:53:06.983Z,6.90
2017-12-12T02:55:34.497Z,6.80
2017-12-12T02:58:02.010Z,6.70
2017-12-12T03:00:29.502Z,6.80
2017-12-12T03:02:57.034Z,6.80
2017-12-12T03:05:24.531Z,6.60
2017-12-12T03:07:52.015Z,6.60
2017-12-12T03:10:19.550Z,6.60
2017-12-12T03:12:47.080Z,6.50
2017-12-12T03:15:14.567Z,6.40
2017-12-12T03:17:42.057Z,6.40
2017-12-12T03:20:09.619Z,6.30
2017-12-12T03:22:37.201Z,6.30
2017-12-12T03:25:04.682Z,6.20
2017-12-12T03:27:32.938Z,6.00
2017-12-12T03:30:00.470Z,6.00
2017-12-12T03:32:27.951Z,6.10
2017-12-12T03:34:55.442Z,5.80
2017-12-12T03:37:23.735Z,5.60
2017-12-12T03:39:52.027Z,5.40
2017-12-12T03:42:19.511Z,5.40
2017-12-12T03:44:46.998Z,5.30
2017-12-12T03:47:14.523Z,5.20
2017-12-12T03:49:42.022Z,5.10
2017-12-12T03:52:09.534Z,5.00
2017-12-12T03:54:37.778Z,4.70
2017-12-12T03:57:05.305Z,4.60
2017-12-12T03:59:32.791Z,4.50
2017-12-12T04:02:00.308Z,4.40
2017-12-12T04:04:28.559Z,4.30
2017-12-12T04:06:56.082Z,4.30
2017-12-12T04:09:23.607Z,4.30
2017-12-12T04:11:51.855Z,4.30
2017-12-12T04:14:19.390Z,4.30
2017-12-12T04:16:46.930Z,4.30
2017-12-12T04:19:14.486Z,4.40
2017-12-12T04:21:42.738Z,4.40
2017-12-12T04:24:10.286Z,4.40
2017-12-12T04:26:37.763Z,4.30
2017-12-12T04:29:05.238Z,4.40
2017-12-12T04:31:32.817Z,4.40
2017-12-12T04:34:00.303Z,4.40
2017-12-12T04:36:27.992Z,4.50
2017-12-12T04:38:55.511Z,4.40
2017-12-12T04:41:23.814Z,4.50
2017-12-12T04:43:51.344Z,4.50
2017-12-12T04:46:19.658Z,4.50
2017-12-12T04:48:47.166Z,4.50
2017-12-12T04:51:14.663Z,4.50
2017-12-12T04:53:42.979Z,4.60
2017-12-12T04:56:10.506Z,4.50
2017-12-12T04:58:38.746Z,4.50
2017-12-12T05:01:06.257Z,4.50
2017-12-12T05:03:34.502Z,4.40
2017-12-12T05:06:02.031Z,4.40
2017-12-12T05:08:29.522Z,4.40
2017-12-12T05:10:57.067Z,4.30
2017-12-12T05:13:24.596Z,4.40
2017-12-12T05:15:52.097Z,4.40
2017-12-12T05:18:19.576Z,4.50
2017-12-12T05:20:47.097Z,4.40
2017-12-12T05:23:14.586Z,4.50
2017-12-12T05:25:42.127Z,4.40
2017-12-12T05:28:09.617Z,4.40
2017-12-12T05:30:37.095Z,4.40
2017-12-12T05:33:04.631Z,4.40
2017-12-12T05:35:32.178Z,4.20
2017-12-12T05:37:59.773Z,4.20
2017-12-12T05:40:27.280Z,4.10
2017-12-12T05:42:54.809Z,4.10
2017-12-12T05:45:22.326Z,4.10
2017-12-12T05:47:49.833Z,4.10
2017-12-12T05:50:17.367Z,4.20
2017-12-12T05:52:44.894Z,4.00
2017-12-12T05:55:13.174Z,4.00
2017-12-12T05:57:41.441Z,3.90
2017-12-12T06:00:08.950Z,3.90
2017-12-12T06:02:36.434Z,3.80
2017-12-12T06:05:03.964Z,3.80
2017-12-12T06:07:31.452Z,3.80
2017-12-12T06:09:58.939Z,3.80
2017-12-12T06:12:26.455Z,3.80
2017-12-12T06:14:53.962Z,3.70
2017-12-12T06:17:21.490Z,3.70
2017-12-12T06:19:48.986Z,3.60
2017-12-12T06:22:16.507Z,3.50
2017-12-12T06:24:44.005Z,3.60
2017-12-12T06:27:11.527Z,3.60
2017-12-12T06:29:39.072Z,3.60
2017-12-12T06:32:07.335Z,3.50
2017-12-12T06:34:35.659Z,3.50
2017-12-12T06:37:03.220Z,3.50
2017-12-12T06:39:30.711Z,3.60
2017-12-12T06:41:58.216Z,3.50
2017-12-12T06:44:25.730Z,3.50
2017-12-12T06:46:53.263Z,3.40
2017-12-12T06:49:22.180Z,3.30
2017-12-12T06:51:49.674Z,3.30
2017-12-12T06:54:17.212Z,3.30
2017-12-12T06:56:44.790Z,3.30
2017-12-12T06:59:12.312Z,3.30
2017-12-12T07:01:40.575Z,3.30
2017-12-12T07:04:08.084Z,3.30
2017-12-12T07:06:35.590Z,3.30
2017-12-12T07:09:03.297Z,3.30
2017-12-12T07:11:30.812Z,3.30
2017-12-12T07:13:58.338Z,3.40
2017-12-12T07:16:25.830Z,3.30
2017-12-12T07:18:53.310Z,3.40
2017-12-12T07:21:20.926Z,3.50
2017-12-12T07:23:48.416Z,3.50
2017-12-12T07:26:15.904Z,3.60
2017-12-12T07:28:43.416Z,3.60
2017-12-12T07:31:10.935Z,3.70
2017-12-12T07:33:38.467Z,3.70
2017-12-12T07:36:05.963Z,3.70
2017-12-12T07:38:33.442Z,3.80
2017-12-12T07:41:01.774Z,3.80
2017-12-12T07:43:29.318Z,3.70
2017-12-12T07:45:56.812Z,3.80
2017-12-12T07:48:24.304Z,3.80
2017-12-12T07:50:52.601Z,3.90
2017-12-12T07:53:20.090Z,3.90
2017-12-12T07:55:47.570Z,4.00
2017-12-12T07:58:15.083Z,4.00
2017-12-12T08:00:43.324Z,4.00
2017-12-12T08:03:10.894Z,4.00
2017-12-12T08:05:38.446Z,4.10
2017-12-12T08:08:05.949Z,4.10
2017-12-12T08:10:34.957Z,4.10
2017-12-12T08:13:03.254Z,4.20
2017-12-12T08:15:30.820Z,4.20
2017-12-12T08:17:58.327Z,4.30
2017-12-12T08:20:25.856Z,4.10
2017-12-12T08:22:53.347Z,4.20
2017-12-12T08:25:20.863Z,4.20
2017-12-12T08:27:48.422Z,4.40
2017-12-12T08:30:16.736Z,4.40
2017-12-12T08:32:44.222Z,4.40
2017-12-12T08:35:11.830Z,4.30
2017-12-12T08:37:40.138Z,4.30
2017-12-12T08:40:07.785Z,4.30
2017-12-12T08:42:35.280Z,4.30
2017-12-12T08:45:02.787Z,4.30
2017-12-12T08:47:30.311Z,4.40
2017-12-12T08:49:57.800Z,4.50
2017-12-12T08:52:25.419Z,4.60
2017-12-12T08:54:52.963Z,4.70
2017-12-12T08:57:21.202Z,4.70
2017-12-12T08:59:48.679Z,4.70
2017-12-12T09:02:16.211Z,4.70
2017-12-12T09:04:43.701Z,4.60
2017-12-12T09:07:11.198Z,4.50
2017-12-12T09:09:38.668Z,4.40
2017-12-12T09:12:06.210Z,4.40
2017-12-12T09:14:34.474Z,4.50
2017-12-12T09:17:02.003Z,4.50
2017-12-12T09:19:29.500Z,4.60
2017-12-12T09:21:57.034Z,4.80
2017-12-12T09:24:24.532Z,4.80
2017-12-12T09:26:52.043Z,4.90
2017-12-12T09:29:19.518Z,4.80
2017-12-12T09:31:47.026Z,4.70
2017-12-12T09:34:15.271Z,4.90
2017-12-12T09:36:42.761Z,4.90
2017-12-12T09:39:10.287Z,5.00
2017-12-12T09:41:37.771Z,4.90
2017-12-12T09:44:05.261Z,4.90
2017-12-12T09:46:33.530Z,5.00
2017-12-12T09:49:01.044Z,5.00
2017-12-12T09:51:28.580Z,4.90
2017-12-12T09:53:56.826Z,5.10
2017-12-12T09:56:24.340Z,5.10
2017-12-12T09:58:51.891Z,5.00
2017-12-12T10:01:20.167Z,5.30
2017-12-12T10:03:48.450Z,5.30
2017-12-12T10:06:16.858Z,5.40
2017-12-12T10:08:44.396Z,5.40
2017-12-12T10:11:12.647Z,5.50
2017-12-12T10:13:41.077Z,5.50
2017-12-12T10:16:08.828Z,5.40
2017-12-12T10:18:36.321Z,5.40
2017-12-12T10:21:03.844Z,5.40
2017-12-12T10:23:32.103Z,5.30
2017-12-12T10:25:59.587Z,5.30
2017-12-12T10:28:27.878Z,5.20
2017-12-12T10:30:56.139Z,5.30
2017-12-12T10:33:23.650Z,5.20
2017-12-12T10:35:51.127Z,5.20
2017-12-12T10:38:18.623Z,5.20
2017-12-12T10:40:46.103Z,5.20
2017-12-12T10:43:14.393Z,5.10
2017-12-12T10:45:42.832Z,5.00
2017-12-12T10:48:10.323Z,5.00
2017-12-12T10:50:37.857Z,5.00
2017-12-12T10:53:05.357Z,5.10
2017-12-12T10:55:33.622Z,5.10
2017-12-12T10:58:01.968Z,5.10
2017-12-12T11:00:29.499Z,5.10
2017-12-12T11:02:56.987Z,5.00
2017-12-12T11:05:24.513Z,5.10
2017-12-12T11:07:52.770Z,5.30
2017-12-12T11:10:20.313Z,5.30
2017-12-12T11:12:47.782Z,5.30
2017-12-12T11:15:15.262Z,5.30
2017-12-12T11:17:42.776Z,5.30
2017-12-12T11:20:10.264Z,5.20
2017-12-12T11:22:37.758Z,5.30
2017-12-12T11:25:05.283Z,5.20
2017-12-12T11:27:32.795Z,5.20
2017-12-12T11:30:01.079Z,5.20
2017-12-12T11:32:29.330Z,5.10
2017-12-12T11:34:57.031Z,5.10
2017-12-12T11:37:28.047Z,5.10
2017-12-12T11:39:55.535Z,5.10
2017-12-12T11:42:23.807Z,5.00
2017-12-12T11:44:52.048Z,5.10
2017-12-12T11:47:19.583Z,5.10
2017-12-12T11:49:47.061Z,5.10
2017-12-12T11:52:14.550Z,5.20
2017-12-12T11:54:42.070Z,5.30
2017-12-12T11:57:09.583Z,5.40
2017-12-12T11:59:37.073Z,5.40
2017-12-12T12:02:05.389Z,5.30
2017-12-12T12:04:32.907Z,5.30
2017-12-12T12:07:00.415Z,5.40
2017-12-12T12:09:27.946Z,5.50
2017-12-12T12:11:56.210Z,5.50
2017-12-12T12:14:23.703Z,5.50
2017-12-12T12:16:51.234Z,5.60
2017-12-12T12:19:18.717Z,5.60
2017-12-12T12:21:46.962Z,5.60
2017-12-12T12:24:14.471Z,5.60
2017-12-12T12:26:42.102Z,5.80
2017-12-12T12:29:09.575Z,5.90
2017-12-12T12:31:37.079Z,6.10
2017-12-12T12:34:04.597Z,6.30
2017-12-12T12:36:32.098Z,6.40
2017-12-12T12:38:59.628Z,6.60
2017-12-12T12:41:27.156Z,6.70
2017-12-12T12:43:54.638Z,6.80
2017-12-12T12:46:22.150Z,6.70
2017-12-12T12:48:49.674Z,6.80
2017-12-12T12:51:17.183Z,6.90
2017-12-12T12:53:44.672Z,7.00
2017-12-12T12:56:12.188Z,6.90
2017-12-12T12:58:40.569Z,6.60
2017-12-12T13:01:08.815Z,6.70
2017-12-12T13:03:36.351Z,6.70
2017-12-12T13:06:03.857Z,6.70
2017-12-12T13:08:31.391Z,6.70
2017-12-12T13:10:58.875Z,6.60
2017-12-12T13:13:26.395Z,6.40
2017-12-12T13:15:53.903Z,6.30
2017-12-12T13:18:21.404Z,6.20
2017-12-12T13:20:48.938Z,6.10
2017-12-12T13:23:16.416Z,6.00
2017-12-12T13:25:43.955Z,6.00
2017-12-12T13:28:11.486Z,5.90
2017-12-12T13:30:38.995Z,5.90
2017-12-12T13:33:07.370Z,5.90
2017-12-12T13:35:34.847Z,5.90
2017-12-12T13:38:03.135Z,5.90
2017-12-12T13:40:31.437Z,5.90
2017-12-12T13:42:58.923Z,5.90
2017-12-12T13:45:26.414Z,5.90
2017-12-12T13:47:53.946Z,5.90
2017-12-12T13:50:21.422Z,5.90
2017-12-12T13:52:48.905Z,5.80
2017-12-12T13:55:16.442Z,5.90
2017-12-12T13:57:43.926Z,6.10
2017-12-12T14:00:11.395Z,6.30
2017-12-12T14:02:39.686Z,6.90
2017-12-12T14:05:07.969Z,7.20
2017-12-12T14:07:36.262Z,7.00
2017-12-12T14:10:04.507Z,6.90
2017-12-12T14:12:32.019Z,6.90
2017-12-12T14:14:59.536Z,7.10
2017-12-12T14:17:27.097Z,7.30
2017-12-12T14:19:54.618Z,7.20
2017-12-12T14:22:22.155Z,7.00
2017-12-12T14:24:50.421Z,6.80
2017-12-12T14:27:17.902Z,6.80
2017-12-12T14:29:46.195Z,6.20
2017-12-12T14:32:13.727Z,6.10
2017-12-12T14:34:41.207Z,6.00
2017-12-12T14:37:09.492Z,5.90
2017-12-12T14:39:37.736Z,5.90
2017-12-12T14:42:05.260Z,5.90
2017-12-12T14:44:32.783Z,5.90
2017-12-12T14:47:01.039Z,5.90
2017-12-12T14:49:28.543Z,5.90
2017-12-12T14:51:56.791Z,5.60
2017-12-12T14:54:24.300Z,5.60
2017-12-12T14:56:51.795Z,5.50
2017-12-12T14:59:19.495Z,5.40
2017-12-12T15:01:46.978Z,5.30
2017-12-12T15:04:14.540Z,5.00
2017-12-12T15:06:42.844Z,4.90
2017-12-12T15:09:10.342Z,4.80
2017-12-12T15:11:37.850Z,4.70
2017-12-12T15:14:06.135Z,4.40
2017-12-12T15:16:34.422Z,4.30
2017-12-12T15:19:01.916Z,4.30
2017-12-12T15:21:29.429Z,4.30
2017-12-12T15:23:56.930Z,4.20
2017-12-12T15:26:24.413Z,4.20
2017-12-12T15:28:51.931Z,4.20
2017-12-12T15:31:20.170Z,4.10
2017-12-12T15:33:47.646Z,4.00
2017-12-12T15:36:15.182Z,4.00
2017-12-12T15:38:42.659Z,4.00
2017-12-12T15:41:10.131Z,4.00
2017-12-12T15:43:37.635Z,3.90
2017-12-12T15:46:05.124Z,3.80
2017-12-12T15:48:32.636Z,3.70
2017-12-12T15:51:00.913Z,3.70
2017-12-12T15:53:29.196Z,3.60
2017-12-12T15:55:57.451Z,3.60
2017-12-12T15:58:24.982Z,3.60
2017-12-12T16:00:52.468Z,3.60
2017-12-12T16:03:19.978Z,3.40
2017-12-12T16:05:48.255Z,3.20
2017-12-12T16:08:16.509Z,3.20
2017-12-12T16:10:44.043Z,3.20
2017-12-12T16:13:11.547Z,3.20
2017-12-12T16:15:39.126Z,3.10
2017-12-12T16:18:07.419Z,2.90
2017-12-12T16:20:34.895Z,2.90
2017-12-12T16:23:02.422Z,2.80
2017-12-12T16:25:29.948Z,2.80
2017-12-12T16:27:57.438Z,2.80
2017-12-12T16:30:24.961Z,2.70
2017-12-12T16:32:52.492Z,2.70
2017-12-12T16:35:20.744Z,2.60
2017-12-12T16:37:48.413Z,2.60
2017-12-12T16:40:15.922Z,2.70
2017-12-12T16:42:43.411Z,2.80
2017-12-12T16:45:10.926Z,2.90
2017-12-12T16:47:39.182Z,3.20
2017-12-12T16:50:06.695Z,3.20
2017-12-12T16:52:34.216Z,3.30
2017-12-12T16:55:02.487Z,3.20
2017-12-12T16:57:29.993Z,3.20
2017-12-12T16:59:57.519Z,3.10
2017-12-12T17:02:25.010Z,3.00
2017-12-12T17:04:52.667Z,2.90
2017-12-12T17:07:20.948Z,2.80
2017-12-12T17:09:49.248Z,2.70
2017-12-12T17:12:16.747Z,2.70
2017-12-12T17:14:44.283Z,2.60
2017-12-12T17:17:11.769Z,2.60
2017-12-12T17:19:39.310Z,2.50
2017-12-12T17:22:06.779Z,2.50
2017-12-12T17:24:34.303Z,2.50
2017-12-12T17:27:02.572Z,2.40
2017-12-12T17:29:30.062Z,2.40
2017-12-12T17:31:57.609Z,2.40
2017-12-12T17:34:25.926Z,2.30
2017-12-12T17:36:53.415Z,2.20
2017-12-12T17:39:20.946Z,2.20
2017-12-12T17:41:48.569Z,2.10
2017-12-12T17:44:16.078Z,2.10
2017-12-12T17:46:43.571Z,2.00
2017-12-12T17:49:11.114Z,2.00
2017-12-12T17:51:38.632Z,1.90
2017-12-12T17:54:06.163Z,1.80
2017-12-12T17:56:33.755Z,1.70
2017-12-12T17:59:01.236Z,1.70
2017-12-12T18:01:29.522Z,1.70
2017-12-12T18:03:57.026Z,1.70
2017-12-12T18:06:24.541Z,1.70
2017-12-12T18:08:52.796Z,1.70
2017-12-12T18:11:20.295Z,1.70
2017-12-12T18:13:47.837Z,1.70
2017-12-12T18:16:16.082Z,1.80
2017-12-12T18:18:43.609Z,1.80
2017-12-12T18:21:11.083Z,1.70
2017-12-12T18:23:38.597Z,1.70
2017-12-12T18:26:06.138Z,1.70
2017-12-12T18:28:33.691Z,1.40
2017-12-12T18:31:01.206Z,1.30
2017-12-12T18:33:29.455Z,1.30
2017-12-12T18:35:56.975Z,1.20
2017-12-12T18:38:24.463Z,1.20
2017-12-12T18:40:51.969Z,1.10
2017-12-12T18:43:20.231Z,1.00
2017-12-12T18:45:47.755Z,1.00
2017-12-12T18:48:15.262Z,1.00
2017-12-12T18:50:42.744Z,1.00
2017-12-12T18:53:11.034Z,0.80
2017-12-12T18:55:39.291Z,0.80
2017-12-12T18:58:06.830Z,0.80
2017-12-12T19:00:34.342Z,0.70
2017-12-12T19:03:02.611Z,0.60
2017-12-12T19:05:30.871Z,0.60
2017-12-12T19:07:58.467Z,0.50
2017-12-12T19:10:26.757Z,0.50
2017-12-12T19:12:54.238Z,0.40
2017-12-12T19:15:21.754Z,0.50
2017-12-12T19:17:50.035Z,0.40
2017-12-12T19:20:17.552Z,0.30
2017-12-12T19:22:45.146Z,0.30
2017-12-12T19:25:12.623Z,0.20
2017-12-12T19:27:40.162Z,0.20
2017-12-12T19:30:07.639Z,0.20
2017-12-12T19:32:35.167Z,0.20
2017-12-12T19:35:02.660Z,0.20
2017-12-12T19:37:30.874Z,0.30
2017-12-12T19:39:59.161Z,0.20
2017-12-12T19:42:27.414Z,0.20
2017-12-12T19:44:54.927Z,0.20
2017-12-12T19:47:22.472Z,0.10
2017-12-12T19:49:49.969Z,0.10
2017-12-12T19:52:17.495Z,0.10
2017-12-12T19:54:45.875Z,0.20
2017-12-12T19:57:14.118Z,0.20
2017-12-12T19:59:41.590Z,0.20
2017-12-12T20:02:09.107Z,0.30
2017-12-12T20:04:36.613Z,0.20
2017-12-12T20:07:04.094Z,0.20
2017-12-12T20:09:32.375Z,0.30
2017-12-12T20:12:00.627Z,0.40
2017-12-12T20:14:28.172Z,0.40
2017-12-12T20:16:55.654Z,0.50
2017-12-12T20:19:23.127Z,0.60
2017-12-12T20:21:50.667Z,0.80
2017-12-12T20:24:18.155Z,0.80
2017-12-12T20:26:45.704Z,0.90
2017-12-12T20:29:13.193Z,0.80
2017-12-12T20:31:40.758Z,0.80
2017-12-12T20:34:09.839Z,0.80
2017-12-12T20:36:37.363Z,0.80
2017-12-12T20:39:04.889Z,0.80
2017-12-12T20:41:33.183Z,0.70
2017-12-12T20:44:01.444Z,0.60
2017-12-12T20:46:28.954Z,0.60
2017-12-12T20:48:56.436Z,0.50
2017-12-12T20:51:23.955Z,0.60
2017-12-12T20:53:52.194Z,0.60
2017-12-12T20:56:19.689Z,0.50
2017-12-12T20:58:47.982Z,0.40
2017-12-12T21:01:15.472Z,0.40
2017-12-12T21:03:42.989Z,0.30
2017-12-12T21:06:10.475Z,0.20
2017-12-12T21:08:37.986Z,0.20
2017-12-12T21:11:05.467Z,0.10
2017-12-12T21:13:32.988Z,0.10
2017-12-12T21:16:00.510Z,0.10
2017-12-12T21:18:29.467Z,0.10
2017-12-12T21:20:57.697Z,0.10
2017-12-12T21:23:25.243Z,0.20
2017-12-12T21:25:52.722Z,0.20
2017-12-12T21:28:20.965Z,0.00
2017-12-12T21:30:48.507Z,0.00
2017-12-12T21:33:16.827Z,-0.10
2017-12-12T21:35:44.386Z,-0.10
2017-12-12T21:38:11.874Z,-0.20
2017-12-12T21:40:40.135Z,-0.20
2017-12-12T21:43:07.701Z,-0.20
2017-12-12T21:45:35.216Z,-0.20
2017-12-12T21:48:02.739Z,-0.20
2017-12-12T21:50:30.998Z,0.00
2017-12-12T21:52:58.555Z,0.00
2017-12-12T21:55:26.027Z,0.20
2017-12-12T21:57:53.514Z,0.30
2017-12-12T22:00:21.815Z,0.60
2017-12-12T22:02:49.312Z,0.60
2017-12-12T22:05:16.806Z,0.80
2017-12-12T22:07:44.320Z,0.90
2017-12-12T22:10:11.863Z,1.10
2017-12-12T22:12:39.344Z,1.20
2017-12-12T22:15:06.884Z,1.20
2017-12-12T22:17:34.395Z,1.40
2017-12-12T22:20:01.915Z,1.50
2017-12-12T22:22:29.426Z,1.50
2017-12-12T22:24:56.905Z,1.60
2017-12-12T22:27:24.416Z,1.70
2017-12-12T22:29:51.942Z,1.80
2017-12-12T22:32:20.186Z,1.70
2017-12-12T22:34:47.694Z,1.70
2017-12-12T22:37:15.947Z,1.50
2017-12-12T22:39:43.471Z,1.50
2017-12-12T22:42:10.962Z,1.40
2017-12-12T22:44:38.488Z,1.30
2017-12-12T22:47:06.002Z,1.30
2017-12-12T22:49:33.475Z,1.10
2017-12-12T22:52:00.987Z,1.10
2017-12-12T22:54:28.501Z,0.90
2017-12-12T22:56:56.037Z,0.80
2017-12-12T22:59:23.526Z,0.70
2017-12-12T23:01:51.053Z,0.60
2017-12-12T23:04:18.559Z,0.50
2017-12-12T23:06:46.853Z,0.50
2017-12-12T23:09:15.170Z,0.40
2017-12-12T23:11:42.643Z,0.40
2017-12-12T23:14:10.115Z,0.30
2017-12-12T23:16:37.626Z,0.40
2017-12-12T23:19:05.145Z,0.40
2017-12-12T23:21:32.656Z,0.50
2017-12-12T23:24:00.130Z,0.50
2017-12-12T23:26:27.671Z,0.50
2017-12-12T23:28:56.018Z,0.60
2017-12-12T23:31:23.505Z,0.60
2017-12-12T23:33:51.027Z,0.60
2017-12-12T23:36:18.506Z,0.70
2017-12-12T23:38:45.983Z,0.70
2017-12-12T23:41:13.536Z,0.80
2017-12-12T23:43:41.020Z,0.80
2017-12-12T23:46:08.511Z,0.80
2017-12-12T23:48:36.025Z,0.80
2017-12-12T23:51:03.501Z,0.90
2017-12-12T23:53:31.014Z,1.00
2017-12-12T23:55:58.499Z,1.00
2017-12-12T23:58:26.006Z,1.10
